sensor_id;sensor_type;location;lat;lon;timestamp;pressure;altitude;pressure_sealevel;temperature;humidity
64139;BME280;50435;43.700;-79.318;2023-04-06T00:00:56;99800.63;;;6.39;48.17
64139;BME280;50435;43.700;-79.318;2023-04-06T00:03:24;99772.93;;;6.59;48.21
64139;BME280;50435;43.700;-79.318;2023-04-06T00:05:52;99817.44;;;6.88;48.12
64139;BME280;50435;43.700;-79.318;2023-04-06T00:08:20;99850.76;;;6.44;47.99
64139;BME280;50435;43.700;-79.318;2023-04-06T00:10:47;99864.81;;;5.52;47.83
64139;BME280;50435;43.700;-79.318;2023-04-06T00:13:14;99910.56;;;6.50;47.74
64139;BME280;50435;43.700;-79.318;2023-04-06T00:15:41;99924.10;;;6.08;47.67
64139;BME280;50435;43.700;-79.318;2023-04-06T00:18:09;99912.96;;;6.47;47.81
64139;BME280;50435;43.700;-79.318;2023-04-06T00:20:37;99904.01;;;6.65;47.77
64139;BME280;50435;43.700;-79.318;2023-04-06T00:23:05;99900.67;;;6.42;47.74
64139;BME280;50435;43.700;-79.318;2023-04-06T00:25:32;99885.33;;;6.68;47.63
64139;BME280;50435;43.700;-79.318;2023-04-06T00:27:59;99901.00;;;6.14;47.69
64139;BME280;50435;43.700;-79.318;2023-04-06T00:30:26;99901.83;;;6.73;47.41
64139;BME280;50435;43.700;-79.318;2023-04-06T00:32:54;99899.42;;;6.25;47.33
64139;BME280;50435;43.700;-79.318;2023-04-06T00:35:21;99884.26;;;6.69;47.39
64139;BME280;50435;43.700;-79.318;2023-04-06T00:37:48;99886.11;;;5.92;47.50
64139;BME280;50435;43.700;-79.318;2023-04-06T00:40:16;99877.55;;;6.63;47.41
64139;BME280;50435;43.700;-79.318;2023-04-06T00:42:44;99879.75;;;5.49;47.31
64139;BME280;50435;43.700;-79.318;2023-04-06T00:45:11;99876.01;;;6.96;47.29
64139;BME280;50435;43.700;-79.318;2023-04-06T00:47:39;99864.00;;;6.44;47.37
64139;BME280;50435;43.700;-79.318;2023-04-06T00:50:07;99850.84;;;6.52;47.09
64139;BME280;50435;43.700;-79.318;2023-04-06T00:52:35;99838.30;;;6.52;47.04
64139;BME280;50435;43.700;-79.318;2023-04-06T00:55:02;99824.77;;;6.41;47.28
64139;BME280;50435;43.700;-79.318;2023-04-06T00:57:30;99801.33;;;6.95;47.14
64139;BME280;50435;43.700;-79.318;2023-04-06T00:59:58;99823.08;;;5.98;47.06
64139;BME280;50435;43.700;-79.318;2023-04-06T01:02:25;99878.10;;;7.00;47.09
64139;BME280;50435;43.700;-79.318;2023-04-06T01:04:53;99894.84;;;5.98;47.33
64139;BME280;50435;43.700;-79.318;2023-04-06T01:07:20;99869.37;;;7.00;47.13
64139;BME280;50435;43.700;-79.318;2023-04-06T01:09:47;99867.78;;;5.43;47.36
64139;BME280;50435;43.700;-79.318;2023-04-06T01:12:15;99894.91;;;6.88;47.15
64139;BME280;50435;43.700;-79.318;2023-04-06T01:14:42;99882.89;;;5.78;47.48
64139;BME280;50435;43.700;-79.318;2023-04-06T01:17:10;99825.95;;;6.59;47.15
64139;BME280;50435;43.700;-79.318;2023-04-06T01:19:37;99787.45;;;6.88;47.18
64139;BME280;50435;43.700;-79.318;2023-04-06T01:22:05;99696.11;;;6.13;47.09
64139;BME280;50435;43.700;-79.318;2023-04-06T01:24:33;99546.01;;;6.63;46.96
64139;BME280;50435;43.700;-79.318;2023-04-06T01:27:01;99577.81;;;6.52;46.77
64139;BME280;50435;43.700;-79.318;2023-04-06T01:29:28;99585.70;;;6.87;47.57
64139;BME280;50435;43.700;-79.318;2023-04-06T01:31:56;99652.69;;;5.91;48.38
64139;BME280;50435;43.700;-79.318;2023-04-06T01:34:24;99743.66;;;6.67;48.47
64139;BME280;50435;43.700;-79.318;2023-04-06T01:36:51;99735.44;;;6.18;48.73
64139;BME280;50435;43.700;-79.318;2023-04-06T01:39:20;99748.72;;;6.21;47.67
64139;BME280;50435;43.700;-79.318;2023-04-06T01:41:47;99770.66;;;5.11;48.48
64139;BME280;50435;43.700;-79.318;2023-04-06T01:44:17;99812.66;;;6.57;48.47
64139;BME280;50435;43.700;-79.318;2023-04-06T01:46:45;99863.25;;;5.51;48.32
64139;BME280;50435;43.700;-79.318;2023-04-06T01:49:12;99830.00;;;6.50;47.99
64139;BME280;50435;43.700;-79.318;2023-04-06T01:51:40;99831.93;;;5.48;48.76
64139;BME280;50435;43.700;-79.318;2023-04-06T01:54:09;99771.48;;;6.43;47.73
64139;BME280;50435;43.700;-79.318;2023-04-06T01:56:36;99745.17;;;7.00;47.73
64139;BME280;50435;43.700;-79.318;2023-04-06T01:59:04;99624.81;;;6.52;46.98
64139;BME280;50435;43.700;-79.318;2023-04-06T02:01:32;99669.91;;;6.53;47.37
64139;BME280;50435;43.700;-79.318;2023-04-06T02:03:59;99786.55;;;6.60;48.49
64139;BME280;50435;43.700;-79.318;2023-04-06T02:06:26;99930.81;;;6.64;49.12
64139;BME280;50435;43.700;-79.318;2023-04-06T02:08:54;99892.33;;;6.19;49.43
64139;BME280;50435;43.700;-79.318;2023-04-06T02:11:21;99945.37;;;6.66;50.46
64139;BME280;50435;43.700;-79.318;2023-04-06T02:13:48;99945.59;;;6.65;51.10
64139;BME280;50435;43.700;-79.318;2023-04-06T02:16:16;99936.80;;;6.82;51.22
64139;BME280;50435;43.700;-79.318;2023-04-06T02:18:44;99956.50;;;5.63;51.62
64139;BME280;50435;43.700;-79.318;2023-04-06T02:21:11;99884.58;;;6.38;51.44
64139;BME280;50435;43.700;-79.318;2023-04-06T02:23:38;99906.15;;;6.76;51.35
64139;BME280;50435;43.700;-79.318;2023-04-06T02:26:06;99899.48;;;6.80;52.02
64139;BME280;50435;43.700;-79.318;2023-04-06T02:28:34;99892.64;;;7.10;52.15
64139;BME280;50435;43.700;-79.318;2023-04-06T02:31:01;99889.63;;;6.56;52.60
64139;BME280;50435;43.700;-79.318;2023-04-06T02:33:29;99845.56;;;6.88;52.61
64139;BME280;50435;43.700;-79.318;2023-04-06T02:35:56;99856.11;;;6.45;52.83
64139;BME280;50435;43.700;-79.318;2023-04-06T02:38:24;99842.98;;;7.09;53.04
64139;BME280;50435;43.700;-79.318;2023-04-06T02:40:52;99831.09;;;6.59;53.02
64139;BME280;50435;43.700;-79.318;2023-04-06T02:43:19;99851.54;;;7.08;53.33
64139;BME280;50435;43.700;-79.318;2023-04-06T02:45:46;99791.92;;;5.72;53.31
64139;BME280;50435;43.700;-79.318;2023-04-06T02:48:14;99752.49;;;6.91;53.35
64139;BME280;50435;43.700;-79.318;2023-04-06T02:50:42;99703.38;;;6.27;52.57
64139;BME280;50435;43.700;-79.318;2023-04-06T02:53:09;99646.17;;;6.82;52.63
64139;BME280;50435;43.700;-79.318;2023-04-06T02:55:37;99688.53;;;7.14;52.31
64139;BME280;50435;43.700;-79.318;2023-04-06T02:58:05;99779.50;;;6.91;53.21
64139;BME280;50435;43.700;-79.318;2023-04-06T03:00:32;99879.84;;;7.56;53.14
64139;BME280;50435;43.700;-79.318;2023-04-06T03:03:00;99885.12;;;7.04;53.07
64139;BME280;50435;43.700;-79.318;2023-04-06T03:05:27;99880.03;;;7.56;53.29
64139;BME280;50435;43.700;-79.318;2023-04-06T03:07:55;99855.16;;;6.84;53.27
64139;BME280;50435;43.700;-79.318;2023-04-06T03:10:22;99857.39;;;7.53;52.97
64139;BME280;50435;43.700;-79.318;2023-04-06T03:12:49;99857.35;;;6.99;53.66
64139;BME280;50435;43.700;-79.318;2023-04-06T03:15:17;99838.10;;;7.48;54.32
64139;BME280;50435;43.700;-79.318;2023-04-06T03:17:44;99836.46;;;6.27;54.42
64139;BME280;50435;43.700;-79.318;2023-04-06T03:20:12;99835.89;;;7.53;54.33
64139;BME280;50435;43.700;-79.318;2023-04-06T03:22:40;99829.89;;;6.84;54.76
64139;BME280;50435;43.700;-79.318;2023-04-06T03:25:08;99859.95;;;7.38;54.15
64139;BME280;50435;43.700;-79.318;2023-04-06T03:27:35;99851.82;;;7.93;54.06
64139;BME280;50435;43.700;-79.318;2023-04-06T03:30:04;99849.46;;;7.39;54.34
64139;BME280;50435;43.700;-79.318;2023-04-06T03:32:31;99831.24;;;7.81;54.15
64139;BME280;50435;43.700;-79.318;2023-04-06T03:34:59;99826.77;;;7.48;54.28
64139;BME280;50435;43.700;-79.318;2023-04-06T03:37:26;99815.97;;;7.21;54.36
64139;BME280;50435;43.700;-79.318;2023-04-06T03:39:54;99811.30;;;7.02;54.05
64139;BME280;50435;43.700;-79.318;2023-04-06T03:42:21;99809.10;;;7.51;54.24
64139;BME280;50435;43.700;-79.318;2023-04-06T03:44:49;99819.45;;;6.95;53.67
64139;BME280;50435;43.700;-79.318;2023-04-06T03:47:16;99828.36;;;7.45;54.66
64139;BME280;50435;43.700;-79.318;2023-04-06T03:49:43;99825.11;;;6.57;55.00
64139;BME280;50435;43.700;-79.318;2023-04-06T03:52:11;99825.70;;;7.38;55.36
64139;BME280;50435;43.700;-79.318;2023-04-06T03:54:38;99824.58;;;8.02;55.42
64139;BME280;50435;43.700;-79.318;2023-04-06T03:57:06;99812.88;;;7.66;55.45
64139;BME280;50435;43.700;-79.318;2023-04-06T03:59:34;99805.97;;;7.81;55.66
64139;BME280;50435;43.700;-79.318;2023-04-06T04:02:01;99797.57;;;7.88;55.69
64139;BME280;50435;43.700;-79.318;2023-04-06T04:04:28;99802.61;;;7.98;55.37
64139;BME280;50435;43.700;-79.318;2023-04-06T04:06:55;99810.81;;;7.66;55.33
64139;BME280;50435;43.700;-79.318;2023-04-06T04:09:22;99817.17;;;8.24;55.68
64139;BME280;50435;43.700;-79.318;2023-04-06T04:11:49;99803.94;;;7.28;54.38
64139;BME280;50435;43.700;-79.318;2023-04-06T04:14:17;99801.04;;;8.57;54.62
64139;BME280;50435;43.700;-79.318;2023-04-06T04:16:45;99798.82;;;7.31;54.57
64139;BME280;50435;43.700;-79.318;2023-04-06T04:19:12;99820.35;;;8.80;54.85
64139;BME280;50435;43.700;-79.318;2023-04-06T04:21:43;99830.91;;;8.13;54.97
64139;BME280;50435;43.700;-79.318;2023-04-06T04:24:11;99834.80;;;8.51;54.60
64139;BME280;50435;43.700;-79.318;2023-04-06T04:26:39;99830.03;;;8.61;54.25
64139;BME280;50435;43.700;-79.318;2023-04-06T04:29:07;99836.34;;;8.58;54.89
64139;BME280;50435;43.700;-79.318;2023-04-06T04:31:35;99825.58;;;8.91;54.52
64139;BME280;50435;43.700;-79.318;2023-04-06T04:34:02;99821.85;;;8.69;52.24
64139;BME280;50435;43.700;-79.318;2023-04-06T04:36:30;99817.19;;;9.33;54.41
64139;BME280;50435;43.700;-79.318;2023-04-06T04:38:57;99814.04;;;8.53;55.39
64139;BME280;50435;43.700;-79.318;2023-04-06T04:41:24;99814.69;;;8.98;53.14
64139;BME280;50435;43.700;-79.318;2023-04-06T04:43:52;99809.55;;;8.84;54.56
64139;BME280;50435;43.700;-79.318;2023-04-06T04:46:20;99810.33;;;9.03;55.35
64139;BME280;50435;43.700;-79.318;2023-04-06T04:48:47;99815.72;;;8.59;55.91
64139;BME280;50435;43.700;-79.318;2023-04-06T04:51:15;99804.28;;;8.94;55.52
64139;BME280;50435;43.700;-79.318;2023-04-06T04:53:43;99815.81;;;8.09;54.53
64139;BME280;50435;43.700;-79.318;2023-04-06T04:56:10;99824.66;;;9.37;54.47
64139;BME280;50435;43.700;-79.318;2023-04-06T04:58:39;99812.37;;;9.48;54.96
64139;BME280;50435;43.700;-79.318;2023-04-06T05:01:06;99818.36;;;9.52;54.60
64139;BME280;50435;43.700;-79.318;2023-04-06T05:03:34;99836.59;;;9.49;55.04
64139;BME280;50435;43.700;-79.318;2023-04-06T05:06:02;99830.69;;;9.33;55.89
64139;BME280;50435;43.700;-79.318;2023-04-06T05:08:29;99825.52;;;9.25;55.60
64139;BME280;50435;43.700;-79.318;2023-04-06T05:10:57;99838.42;;;8.96;56.19
64139;BME280;50435;43.700;-79.318;2023-04-06T05:13:24;99852.21;;;9.36;55.83
64139;BME280;50435;43.700;-79.318;2023-04-06T05:15:52;99842.83;;;8.40;55.63
64139;BME280;50435;43.700;-79.318;2023-04-06T05:18:19;99848.57;;;9.32;55.00
64139;BME280;50435;43.700;-79.318;2023-04-06T05:20:47;99845.11;;;9.45;55.23
64139;BME280;50435;43.700;-79.318;2023-04-06T05:23:14;99852.24;;;9.33;54.22
64139;BME280;50435;43.700;-79.318;2023-04-06T05:25:42;99848.15;;;9.48;55.50
64139;BME280;50435;43.700;-79.318;2023-04-06T05:28:09;99851.88;;;9.35;56.01
64139;BME280;50435;43.700;-79.318;2023-04-06T05:30:36;99847.18;;;9.40;55.76
64139;BME280;50435;43.700;-79.318;2023-04-06T05:33:04;99860.98;;;9.07;55.85
64139;BME280;50435;43.700;-79.318;2023-04-06T05:35:31;99861.18;;;9.51;55.55
64139;BME280;50435;43.700;-79.318;2023-04-06T05:37:58;99861.61;;;9.46;55.85
64139;BME280;50435;43.700;-79.318;2023-04-06T05:40:26;99869.03;;;9.43;56.22
64139;BME280;50435;43.700;-79.318;2023-04-06T05:42:53;99868.24;;;8.59;55.23
64139;BME280;50435;43.700;-79.318;2023-04-06T05:45:20;99861.20;;;9.34;55.55
64139;BME280;50435;43.700;-79.318;2023-04-06T05:47:48;99866.03;;;8.09;56.19
64139;BME280;50435;43.700;-79.318;2023-04-06T05:50:15;99868.65;;;9.25;56.22
64139;BME280;50435;43.700;-79.318;2023-04-06T05:52:43;99873.26;;;8.63;56.38
64139;BME280;50435;43.700;-79.318;2023-04-06T05:55:11;99874.06;;;9.51;56.59
64139;BME280;50435;43.700;-79.318;2023-04-06T05:57:38;99878.50;;;9.42;56.45
64139;BME280;50435;43.700;-79.318;2023-04-06T06:00:07;99875.73;;;9.40;56.45
64139;BME280;50435;43.700;-79.318;2023-04-06T06:02:35;99876.96;;;9.61;56.66
64139;BME280;50435;43.700;-79.318;2023-04-06T06:05:03;99873.79;;;8.89;56.69
64139;BME280;50435;43.700;-79.318;2023-04-06T06:07:31;99873.41;;;9.41;56.53
64139;BME280;50435;43.700;-79.318;2023-04-06T06:09:58;99872.63;;;9.42;56.50
64139;BME280;50435;43.700;-79.318;2023-04-06T06:12:25;99877.19;;;9.14;56.01
64139;BME280;50435;43.700;-79.318;2023-04-06T06:14:54;99883.17;;;8.95;56.02
64139;BME280;50435;43.700;-79.318;2023-04-06T06:17:21;99894.42;;;9.33;55.86
64139;BME280;50435;43.700;-79.318;2023-04-06T06:19:49;99897.97;;;7.86;55.52
64139;BME280;50435;43.700;-79.318;2023-04-06T06:22:16;99901.58;;;9.24;55.56
64139;BME280;50435;43.700;-79.318;2023-04-06T06:24:43;99912.16;;;8.21;55.85
64139;BME280;50435;43.700;-79.318;2023-04-06T06:27:11;99918.30;;;9.18;54.87
64139;BME280;50435;43.700;-79.318;2023-04-06T06:29:39;99915.39;;;8.86;54.57
64139;BME280;50435;43.700;-79.318;2023-04-06T06:32:07;99916.84;;;8.78;54.75
64139;BME280;50435;43.700;-79.318;2023-04-06T06:34:35;99914.99;;;9.21;54.74
64139;BME280;50435;43.700;-79.318;2023-04-06T06:37:02;99915.31;;;9.16;55.00
64139;BME280;50435;43.700;-79.318;2023-04-06T06:39:30;99920.99;;;9.15;54.97
64139;BME280;50435;43.700;-79.318;2023-04-06T06:41:58;99930.22;;;8.62;54.71
64139;BME280;50435;43.700;-79.318;2023-04-06T06:44:25;99928.72;;;9.15;55.13
64139;BME280;50435;43.700;-79.318;2023-04-06T06:46:53;99935.74;;;9.19;54.57
64139;BME280;50435;43.700;-79.318;2023-04-06T06:49:20;99932.96;;;9.04;55.64
64139;BME280;50435;43.700;-79.318;2023-04-06T06:51:48;99939.89;;;8.70;55.85
64139;BME280;50435;43.700;-79.318;2023-04-06T06:54:16;99937.90;;;9.15;55.14
64139;BME280;50435;43.700;-79.318;2023-04-06T06:56:43;99934.15;;;7.95;55.21
64139;BME280;50435;43.700;-79.318;2023-04-06T06:59:11;99939.35;;;8.93;53.85
64139;BME280;50435;43.700;-79.318;2023-04-06T07:01:39;99945.79;;;9.10;53.53
64139;BME280;50435;43.700;-79.318;2023-04-06T07:04:07;99949.86;;;8.78;54.35
64139;BME280;50435;43.700;-79.318;2023-04-06T07:06:35;99960.63;;;9.04;54.33
64139;BME280;50435;43.700;-79.318;2023-04-06T07:09:03;99969.75;;;8.98;53.94
64139;BME280;50435;43.700;-79.318;2023-04-06T07:11:30;99971.40;;;9.09;53.51
64139;BME280;50435;43.700;-79.318;2023-04-06T07:13:58;99967.28;;;8.82;53.55
64139;BME280;50435;43.700;-79.318;2023-04-06T07:16:25;99967.07;;;8.82;53.02
64139;BME280;50435;43.700;-79.318;2023-04-06T07:18:53;99979.75;;;7.95;52.98
64139;BME280;50435;43.700;-79.318;2023-04-06T07:21:21;99986.27;;;9.02;52.96
64139;BME280;50435;43.700;-79.318;2023-04-06T07:23:49;99990.69;;;7.54;53.23
64139;BME280;50435;43.700;-79.318;2023-04-06T07:26:16;99999.01;;;8.96;52.41
64139;BME280;50435;43.700;-79.318;2023-04-06T07:28:44;100001.24;;;7.61;52.57
64139;BME280;50435;43.700;-79.318;2023-04-06T07:31:12;100006.56;;;8.85;52.89
64139;BME280;50435;43.700;-79.318;2023-04-06T07:33:39;100016.30;;;8.55;52.53
64139;BME280;50435;43.700;-79.318;2023-04-06T07:36:07;100024.67;;;8.69;52.46
64139;BME280;50435;43.700;-79.318;2023-04-06T07:38:34;100030.90;;;8.70;51.98
64139;BME280;50435;43.700;-79.318;2023-04-06T07:41:02;100033.14;;;8.41;51.96
64139;BME280;50435;43.700;-79.318;2023-04-06T07:43:29;100041.99;;;8.38;52.15
64139;BME280;50435;43.700;-79.318;2023-04-06T07:45:56;100055.42;;;8.20;52.04
64139;BME280;50435;43.700;-79.318;2023-04-06T07:48:24;100063.39;;;8.39;51.83
64139;BME280;50435;43.700;-79.318;2023-04-06T07:50:51;100067.51;;;7.77;51.71
64139;BME280;50435;43.700;-79.318;2023-04-06T07:53:19;100069.81;;;8.27;51.76
64139;BME280;50435;43.700;-79.318;2023-04-06T07:55:47;100071.97;;;7.11;52.12
64139;BME280;50435;43.700;-79.318;2023-04-06T07:58:14;100080.89;;;8.06;51.87
64139;BME280;50435;43.700;-79.318;2023-04-06T08:00:42;100093.26;;;7.60;51.75
64139;BME280;50435;43.700;-79.318;2023-04-06T08:03:09;100102.66;;;8.18;51.90
64139;BME280;50435;43.700;-79.318;2023-04-06T08:05:37;100104.50;;;8.41;51.94
64139;BME280;50435;43.700;-79.318;2023-04-06T08:08:05;100112.28;;;8.34;51.98
64139;BME280;50435;43.700;-79.318;2023-04-06T08:10:33;100121.06;;;8.32;51.91
64139;BME280;50435;43.700;-79.318;2023-04-06T08:13:01;100128.98;;;8.39;51.61
64139;BME280;50435;43.700;-79.318;2023-04-06T08:15:28;100139.18;;;8.20;51.89
64139;BME280;50435;43.700;-79.318;2023-04-06T08:17:55;100137.90;;;7.79;51.64
64139;BME280;50435;43.700;-79.318;2023-04-06T08:20:23;100143.55;;;8.24;51.68
64139;BME280;50435;43.700;-79.318;2023-04-06T08:22:50;100149.96;;;7.22;51.79
64139;BME280;50435;43.700;-79.318;2023-04-06T08:25:17;100151.63;;;8.22;51.53
64139;BME280;50435;43.700;-79.318;2023-04-06T08:27:45;100158.91;;;6.86;51.32
64139;BME280;50435;43.700;-79.318;2023-04-06T08:30:13;100163.32;;;7.87;50.99
64139;BME280;50435;43.700;-79.318;2023-04-06T08:32:41;100172.05;;;7.63;51.01
64139;BME280;50435;43.700;-79.318;2023-04-06T08:35:08;100174.22;;;7.75;50.85
64139;BME280;50435;43.700;-79.318;2023-04-06T08:37:36;100198.12;;;8.48;50.22
64139;BME280;50435;43.700;-79.318;2023-04-06T08:40:05;100212.53;;;8.04;50.54
64139;BME280;50435;43.700;-79.318;2023-04-06T08:42:33;100224.73;;;8.25;50.52
64139;BME280;50435;43.700;-79.318;2023-04-06T08:45:07;100235.38;;;7.82;50.16
64139;BME280;50435;43.700;-79.318;2023-04-06T08:47:36;100246.76;;;8.17;50.25
64139;BME280;50435;43.700;-79.318;2023-04-06T08:50:04;100254.06;;;8.29;50.01
64139;BME280;50435;43.700;-79.318;2023-04-06T08:52:32;100255.80;;;8.18;50.03
64139;BME280;50435;43.700;-79.318;2023-04-06T08:55:00;100259.11;;;7.64;50.06
64139;BME280;50435;43.700;-79.318;2023-04-06T08:57:27;100267.47;;;8.33;50.04
64139;BME280;50435;43.700;-79.318;2023-04-06T08:59:55;100271.00;;;7.55;49.95
64139;BME280;50435;43.700;-79.318;2023-04-06T09:02:24;100286.71;;;8.13;50.22
64139;BME280;50435;43.700;-79.318;2023-04-06T09:04:53;100298.96;;;7.25;49.45
64139;BME280;50435;43.700;-79.318;2023-04-06T09:07:21;100306.83;;;7.99;49.82
64139;BME280;50435;43.700;-79.318;2023-04-06T09:09:49;100318.87;;;6.81;49.73
64139;BME280;50435;43.700;-79.318;2023-04-06T09:12:26;100318.18;;;7.99;49.62
64139;BME280;50435;43.700;-79.318;2023-04-06T09:14:54;100312.32;;;7.54;49.38
64139;BME280;50435;43.700;-79.318;2023-04-06T09:17:22;100319.80;;;7.87;49.52
64139;BME280;50435;43.700;-79.318;2023-04-06T09:19:50;100323.19;;;6.24;49.32
64139;BME280;50435;43.700;-79.318;2023-04-06T09:22:19;100324.92;;;8.02;49.13
64139;BME280;50435;43.700;-79.318;2023-04-06T09:24:48;100320.66;;;6.50;49.34
64139;BME280;50435;43.700;-79.318;2023-04-06T09:27:16;100328.55;;;8.41;48.93
64139;BME280;50435;43.700;-79.318;2023-04-06T09:29:44;100324.35;;;6.82;49.26
64139;BME280;50435;43.700;-79.318;2023-04-06T09:32:12;100336.33;;;7.86;48.95
64139;BME280;50435;43.700;-79.318;2023-04-06T09:34:40;100346.28;;;7.77;48.97
64139;BME280;50435;43.700;-79.318;2023-04-06T09:37:15;100363.34;;;7.94;49.09
64139;BME280;50435;43.700;-79.318;2023-04-06T09:39:43;100361.37;;;6.93;49.20
64139;BME280;50435;43.700;-79.318;2023-04-06T09:42:23;100363.40;;;7.83;49.14
64139;BME280;50435;43.700;-79.318;2023-04-06T09:44:51;100377.54;;;6.98;48.91
64139;BME280;50435;43.700;-79.318;2023-04-06T09:47:20;100379.02;;;8.02;49.15
64139;BME280;50435;43.700;-79.318;2023-04-06T09:49:48;100386.22;;;6.33;49.12
64139;BME280;50435;43.700;-79.318;2023-04-06T09:52:18;100376.35;;;7.55;49.04
64139;BME280;50435;43.700;-79.318;2023-04-06T09:54:49;100383.99;;;6.15;48.86
64139;BME280;50435;43.700;-79.318;2023-04-06T09:57:25;100387.54;;;7.49;48.92
64139;BME280;50435;43.700;-79.318;2023-04-06T10:00:01;100403.33;;;7.05;48.70
64139;BME280;50435;43.700;-79.318;2023-04-06T10:02:33;100396.61;;;7.58;48.52
64139;BME280;50435;43.700;-79.318;2023-04-06T10:05:07;100401.99;;;7.54;48.58
64139;BME280;50435;43.700;-79.318;2023-04-06T10:07:37;100416.59;;;8.04;48.58
64139;BME280;50435;43.700;-79.318;2023-04-06T10:10:06;100421.98;;;7.58;48.36
64139;BME280;50435;43.700;-79.318;2023-04-06T10:12:34;100422.68;;;7.69;48.47
64139;BME280;50435;43.700;-79.318;2023-04-06T10:15:02;100446.23;;;7.35;48.56
64139;BME280;50435;43.700;-79.318;2023-04-06T10:17:30;100472.08;;;7.65;48.25
64139;BME280;50435;43.700;-79.318;2023-04-06T10:20:01;100476.59;;;7.52;48.05
64139;BME280;50435;43.700;-79.318;2023-04-06T10:22:36;100471.42;;;7.92;48.10
64139;BME280;50435;43.700;-79.318;2023-04-06T10:25:08;100476.57;;;7.09;48.23
64139;BME280;50435;43.700;-79.318;2023-04-06T10:27:36;100479.77;;;7.48;48.32
64139;BME280;50435;43.700;-79.318;2023-04-06T10:30:05;100469.64;;;7.38;48.03
64139;BME280;50435;43.700;-79.318;2023-04-06T10:32:35;100484.18;;;7.66;48.34
64139;BME280;50435;43.700;-79.318;2023-04-06T10:35:07;100501.93;;;7.26;48.15
64139;BME280;50435;43.700;-79.318;2023-04-06T10:38:03;100492.92;;;7.79;47.93
64139;BME280;50435;43.700;-79.318;2023-04-06T10:40:31;100482.75;;;7.47;48.11
64139;BME280;50435;43.700;-79.318;2023-04-06T10:43:08;100499.38;;;7.04;48.10
64139;BME280;50435;43.700;-79.318;2023-04-06T10:45:36;100494.46;;;7.37;47.77
64139;BME280;50435;43.700;-79.318;2023-04-06T10:48:13;100510.31;;;7.36;47.73
64139;BME280;50435;43.700;-79.318;2023-04-06T10:50:42;100505.36;;;6.75;47.97
64139;BME280;50435;43.700;-79.318;2023-04-06T10:53:10;100525.63;;;7.48;47.94
64139;BME280;50435;43.700;-79.318;2023-04-06T10:55:39;100534.30;;;7.40;47.99
64139;BME280;50435;43.700;-79.318;2023-04-06T10:58:07;100530.96;;;7.23;48.35
64139;BME280;50435;43.700;-79.318;2023-04-06T11:00:35;100529.32;;;7.24;48.30
64139;BME280;50435;43.700;-79.318;2023-04-06T11:03:02;100527.49;;;7.23;48.36
64139;BME280;50435;43.700;-79.318;2023-04-06T11:05:30;100529.67;;;7.43;48.40
64139;BME280;50435;43.700;-79.318;2023-04-06T11:07:58;100547.67;;;7.25;48.27
64139;BME280;50435;43.700;-79.318;2023-04-06T11:10:25;100553.08;;;7.44;48.32
64139;BME280;50435;43.700;-79.318;2023-04-06T11:12:54;100561.70;;;6.47;48.27
64139;BME280;50435;43.700;-79.318;2023-04-06T11:15:22;100555.32;;;7.26;48.02
64139;BME280;50435;43.700;-79.318;2023-04-06T11:17:50;100551.01;;;5.91;48.34
64139;BME280;50435;43.700;-79.318;2023-04-06T11:20:18;100555.92;;;7.44;48.10
64139;BME280;50435;43.700;-79.318;2023-04-06T11:22:50;100561.94;;;6.00;48.07
64139;BME280;50435;43.700;-79.318;2023-04-06T11:25:18;100561.92;;;7.41;48.11
64139;BME280;50435;43.700;-79.318;2023-04-06T11:27:46;100555.18;;;5.90;48.33
64139;BME280;50435;43.700;-79.318;2023-04-06T11:30:15;100566.17;;;7.38;48.26
64139;BME280;50435;43.700;-79.318;2023-04-06T11:32:43;100570.94;;;6.48;48.04
64139;BME280;50435;43.700;-79.318;2023-04-06T11:35:19;100564.13;;;7.37;48.20
64139;BME280;50435;43.700;-79.318;2023-04-06T11:37:48;100574.08;;;6.30;48.26
64139;BME280;50435;43.700;-79.318;2023-04-06T11:40:21;100576.29;;;7.23;48.39
64139;BME280;50435;43.700;-79.318;2023-04-06T11:42:52;100585.10;;;6.03;48.36
64139;BME280;50435;43.700;-79.318;2023-04-06T11:45:21;100587.93;;;7.06;48.14
64139;BME280;50435;43.700;-79.318;2023-04-06T11:47:56;100604.49;;;5.84;48.18
64139;BME280;50435;43.700;-79.318;2023-04-06T11:50:25;100608.81;;;7.15;48.30
64139;BME280;50435;43.700;-79.318;2023-04-06T11:53:00;100606.38;;;6.52;48.65
64139;BME280;50435;43.700;-79.318;2023-04-06T11:55:28;100613.44;;;7.00;48.73
64139;BME280;50435;43.700;-79.318;2023-04-06T11:57:55;100610.72;;;6.32;48.62
64139;BME280;50435;43.700;-79.318;2023-04-06T12:00:22;100614.82;;;6.99;48.64
64139;BME280;50435;43.700;-79.318;2023-04-06T12:02:49;100619.23;;;6.07;48.49
64139;BME280;50435;43.700;-79.318;2023-04-06T12:05:17;100622.31;;;7.02;48.53
64139;BME280;50435;43.700;-79.318;2023-04-06T12:07:45;100626.58;;;5.82;48.88
64139;BME280;50435;43.700;-79.318;2023-04-06T12:10:13;100635.60;;;6.53;48.84
64139;BME280;50435;43.700;-79.318;2023-04-06T12:12:40;100640.37;;;6.35;48.73
64139;BME280;50435;43.700;-79.318;2023-04-06T12:15:08;100638.11;;;6.87;48.66
64139;BME280;50435;43.700;-79.318;2023-04-06T12:17:36;100638.56;;;7.03;48.81
64139;BME280;50435;43.700;-79.318;2023-04-06T12:20:04;100633.27;;;7.07;48.65
64139;BME280;50435;43.700;-79.318;2023-04-06T12:22:31;100633.07;;;7.34;48.69
64139;BME280;50435;43.700;-79.318;2023-04-06T12:24:58;100645.12;;;6.61;48.58
64139;BME280;50435;43.700;-79.318;2023-04-06T12:27:26;100637.43;;;6.96;48.39
64139;BME280;50435;43.700;-79.318;2023-04-06T12:29:53;100639.59;;;5.93;48.50
64139;BME280;50435;43.700;-79.318;2023-04-06T12:32:21;100638.56;;;7.00;48.26
64139;BME280;50435;43.700;-79.318;2023-04-06T12:34:51;100646.38;;;5.54;47.82
64139;BME280;50435;43.700;-79.318;2023-04-06T12:37:19;100640.68;;;7.04;48.19
64139;BME280;50435;43.700;-79.318;2023-04-06T12:39:46;100650.53;;;5.67;48.03
64139;BME280;50435;43.700;-79.318;2023-04-06T12:42:13;100645.66;;;6.78;48.13
64139;BME280;50435;43.700;-79.318;2023-04-06T12:44:41;100645.43;;;6.66;47.91
64139;BME280;50435;43.700;-79.318;2023-04-06T12:47:09;100642.91;;;7.02;47.66
64139;BME280;50435;43.700;-79.318;2023-04-06T12:49:37;100641.84;;;7.16;47.83